Terminal Aerodrome Forecast
Issued by NWS Mt. Holly, NJ

Home | Current Version | Previous Version | Text Only | Print | Product List | Glossary On
Versions: 1 2 3 4 5 6 7 8 9 10 11 12 13 14 15 16 17 18 19 20 21 22 23 24 25 26 27 28 29 30 31 32 33 34 35 36 37 38 39 40 41 42 43
000
FTUS41 KPHI 222300 RRA
TAFABE
TAF
KABE 222344Z 2300/2324 08005KT 4SM -RA BR BKN006
     FM230300 08005KT 2SM -RA BR OVC004
     FM231700 08005KT 5SM BR OVC006=

USA.gov is the U.S. government's official web portal to all federal, state and local government web resources and services.